createdAt,value
2019-03-29T00:00:00.375Z,30.83
2019-03-29T00:01:00.760Z,29.47
2019-03-29T00:01:39.568Z,31.13
2019-03-29T00:02:17.512Z,31.97
2019-03-29T00:02:53.629Z,31.17
2019-03-29T00:03:29.727Z,31.47
2019-03-29T00:04:05.849Z,29.97
2019-03-29T00:04:42.320Z,30.90
2019-03-29T00:05:18.928Z,30.80
2019-03-29T00:05:55.192Z,32.40
2019-03-29T00:06:31.454Z,32.27
2019-03-29T00:07:07.980Z,31.27
2019-03-29T00:07:44.095Z,31.97
2019-03-29T00:08:20.184Z,31.50
2019-03-29T00:08:56.692Z,32.10
2019-03-29T00:09:34.515Z,30.90
2019-03-29T00:10:10.742Z,31.63
2019-03-29T00:10:47.048Z,30.60
2019-03-29T00:11:23.327Z,30.40
2019-03-29T00:12:01.604Z,30.17
2019-03-29T00:12:37.994Z,31.03
2019-03-29T00:13:14.748Z,30.37
2019-03-29T00:13:50.966Z,31.03
2019-03-29T00:14:27.108Z,30.50
2019-03-29T00:15:03.245Z,32.40
2019-03-29T00:15:40.563Z,30.87
2019-03-29T00:16:16.941Z,30.53
2019-03-29T00:16:53.178Z,30.03
2019-03-29T00:17:29.559Z,30.47
2019-03-29T00:18:05.725Z,29.97
2019-03-29T00:18:41.888Z,31.00
2019-03-29T00:19:18.090Z,31.00
2019-03-29T00:19:54.279Z,30.80
2019-03-29T00:20:30.683Z,30.47
2019-03-29T00:21:06.791Z,30.70
2019-03-29T00:21:42.902Z,30.03
2019-03-29T00:22:19.023Z,31.47
2019-03-29T00:22:55.145Z,31.30
2019-03-29T00:23:31.265Z,31.33
2019-03-29T00:24:07.464Z,30.77
2019-03-29T00:24:43.729Z,30.57
2019-03-29T00:25:20.874Z,30.77
2019-03-29T00:25:57.119Z,30.87
2019-03-29T00:26:34.012Z,30.57
2019-03-29T00:27:10.148Z,32.90
2019-03-29T00:27:46.533Z,31.67
2019-03-29T00:28:22.610Z,32.13
2019-03-29T00:28:59.117Z,31.90
2019-03-29T00:29:35.492Z,31.47
2019-03-29T00:30:11.931Z,31.77
2019-03-29T00:30:48.233Z,32.27
2019-03-29T00:31:24.658Z,32.70
2019-03-29T00:32:01.119Z,32.43
2019-03-29T00:32:38.453Z,32.37
2019-03-29T00:33:14.584Z,32.57
2019-03-29T00:33:50.663Z,33.43
2019-03-29T00:34:26.850Z,32.67
2019-03-29T00:35:03.000Z,32.73
2019-03-29T00:35:39.155Z,32.43
2019-03-29T00:36:15.287Z,33.27
2019-03-29T00:36:52.017Z,32.40
2019-03-29T00:37:28.456Z,32.40
2019-03-29T00:38:04.622Z,32.63
2019-03-29T00:38:40.717Z,32.53
2019-03-29T00:39:17.504Z,33.73
2019-03-29T00:39:53.641Z,31.87
2019-03-29T00:40:29.741Z,32.73
2019-03-29T00:41:05.896Z,32.77
2019-03-29T00:41:42.014Z,31.97
2019-03-29T00:42:18.458Z,31.53
2019-03-29T00:42:54.903Z,31.50
2019-03-29T00:43:31.263Z,31.77
2019-03-29T00:44:07.512Z,31.63
2019-03-29T00:44:43.756Z,31.17
2019-03-29T00:45:20.142Z,30.70
2019-03-29T00:45:56.344Z,31.27
2019-03-29T00:46:32.849Z,32.23
2019-03-29T00:47:08.936Z,31.83
2019-03-29T00:47:45.192Z,31.23
2019-03-29T00:48:21.952Z,31.40
2019-03-29T00:48:59.612Z,32.30
2019-03-29T00:49:35.989Z,30.13
2019-03-29T00:50:12.163Z,31.83
2019-03-29T00:50:48.367Z,32.13
2019-03-29T00:51:24.979Z,31.67
2019-03-29T00:52:02.941Z,32.83
2019-03-29T00:52:39.110Z,32.27
2019-03-29T00:53:15.533Z,31.13
2019-03-29T00:53:51.706Z,32.00
2019-03-29T00:54:28.140Z,33.23
2019-03-29T00:55:04.919Z,31.53
2019-03-29T00:55:41.022Z,32.33
2019-03-29T00:56:17.126Z,32.30
2019-03-29T00:56:53.595Z,30.87
2019-03-29T00:57:30.298Z,31.27
2019-03-29T00:58:07.057Z,31.00
2019-03-29T00:58:43.162Z,31.27
2019-03-29T00:59:19.482Z,30.87
2019-03-29T00:59:56.425Z,31.47
2019-03-29T01:00:34.160Z,31.23
2019-03-29T01:01:11.246Z,31.03
2019-03-29T01:01:48.283Z,31.17
2019-03-29T01:02:25.262Z,30.33
2019-03-29T01:03:02.427Z,31.37
2019-03-29T01:03:39.432Z,31.50
2019-03-29T01:04:16.617Z,34.00
2019-03-29T01:04:52.856Z,34.13
2019-03-29T01:05:29.061Z,33.30
2019-03-29T01:06:05.174Z,36.23
2019-03-29T01:06:41.275Z,39.17
2019-03-29T01:07:17.468Z,36.27
2019-03-29T01:08:07.062Z,39.40
2019-03-29T01:08:32.314Z,38.87
2019-03-29T01:09:08.524Z,38.10
2019-03-29T01:09:44.712Z,36.30
2019-03-29T01:10:20.797Z,37.37
2019-03-29T01:10:57.225Z,38.90
2019-03-29T01:11:34.887Z,36.77
2019-03-29T01:12:11.025Z,36.10
2019-03-29T01:12:47.125Z,36.83
2019-03-29T01:13:23.232Z,36.20
2019-03-29T01:13:59.600Z,35.73
2019-03-29T01:14:35.716Z,35.87
2019-03-29T01:15:12.022Z,36.23
2019-03-29T01:15:48.116Z,36.67
2019-03-29T01:16:24.300Z,35.33
2019-03-29T01:17:03.369Z,36.47
2019-03-29T01:17:39.519Z,35.47
2019-03-29T01:18:15.610Z,36.17
2019-03-29T01:18:51.727Z,35.23
2019-03-29T01:19:27.884Z,35.77
2019-03-29T01:20:04.761Z,34.70
2019-03-29T01:20:41.863Z,35.00
2019-03-29T01:21:17.967Z,34.83
2019-03-29T01:21:54.446Z,33.43
2019-03-29T01:22:31.327Z,33.30
2019-03-29T01:23:09.564Z,34.13
2019-03-29T01:23:45.659Z,33.00
2019-03-29T01:24:22.718Z,33.93
2019-03-29T01:24:59.827Z,33.03
2019-03-29T01:25:35.955Z,33.20
2019-03-29T01:26:12.092Z,33.37
2019-03-29T01:26:48.250Z,33.60
2019-03-29T01:27:24.437Z,33.60
2019-03-29T01:28:01.955Z,34.43
2019-03-29T01:28:38.681Z,32.77
2019-03-29T01:29:15.821Z,32.93
2019-03-29T01:29:52.300Z,33.93
2019-03-29T01:30:28.433Z,32.60
2019-03-29T01:31:05.498Z,33.10
2019-03-29T01:31:41.632Z,34.33
2019-03-29T01:32:17.756Z,33.03
2019-03-29T01:32:53.868Z,33.23
2019-03-29T01:33:30.244Z,34.13
2019-03-29T01:34:06.363Z,34.77
2019-03-29T01:34:43.148Z,33.23
2019-03-29T01:35:19.520Z,32.63
2019-03-29T01:35:55.610Z,33.37
2019-03-29T01:36:31.727Z,33.13
2019-03-29T01:37:07.915Z,32.73
2019-03-29T01:37:44.023Z,33.13
2019-03-29T01:38:22.028Z,32.80
2019-03-29T01:38:59.575Z,33.40
2019-03-29T01:39:35.723Z,32.70
2019-03-29T01:40:13.109Z,32.30
2019-03-29T01:40:49.236Z,33.50
2019-03-29T01:41:25.316Z,31.43
2019-03-29T01:42:03.469Z,32.77
2019-03-29T01:42:39.641Z,32.70
2019-03-29T01:43:15.789Z,32.07
2019-03-29T01:43:51.972Z,33.17
2019-03-29T01:44:28.256Z,33.13
2019-03-29T01:45:05.324Z,32.33
2019-03-29T01:45:41.575Z,33.10
2019-03-29T01:46:17.671Z,33.43
2019-03-29T01:46:54.099Z,33.30
2019-03-29T01:47:30.277Z,32.73
2019-03-29T01:48:07.388Z,32.00
2019-03-29T01:48:43.740Z,32.00
2019-03-29T01:49:19.844Z,32.93
2019-03-29T01:49:56.022Z,32.80
2019-03-29T01:50:32.402Z,32.77
2019-03-29T01:51:08.537Z,33.30
2019-03-29T01:51:44.647Z,32.30
2019-03-29T01:52:20.788Z,32.13
2019-03-29T01:52:57.044Z,32.50
2019-03-29T01:53:33.666Z,32.77
2019-03-29T01:54:09.755Z,32.17
2019-03-29T01:54:45.872Z,31.67
2019-03-29T01:55:22.378Z,34.07
2019-03-29T01:55:59.259Z,33.00
2019-03-29T01:56:35.378Z,31.77
2019-03-29T01:57:11.492Z,32.67
2019-03-29T01:57:47.660Z,34.07
2019-03-29T01:58:25.006Z,32.53
2019-03-29T01:59:03.220Z,32.03
2019-03-29T01:59:39.311Z,31.80
2019-03-29T02:00:21.397Z,32.20
2019-03-29T02:00:57.562Z,31.50
2019-03-29T02:01:33.802Z,32.37
2019-03-29T02:02:10.955Z,32.57
2019-03-29T02:02:47.088Z,32.67
2019-03-29T02:03:23.271Z,33.13
2019-03-29T02:03:59.453Z,33.77
2019-03-29T02:04:35.592Z,31.70
2019-03-29T02:05:11.683Z,31.47
2019-03-29T02:05:48.058Z,32.17
2019-03-29T02:06:24.564Z,33.60
2019-03-29T02:07:01.819Z,33.77
2019-03-29T02:07:38.196Z,32.37
2019-03-29T02:08:14.610Z,33.10
2019-03-29T02:08:50.721Z,32.37
2019-03-29T02:09:26.818Z,33.07
2019-03-29T02:10:03.483Z,32.40
2019-03-29T02:10:39.606Z,32.17
2019-03-29T02:11:15.876Z,33.13
2019-03-29T02:11:52.296Z,32.57
2019-03-29T02:12:28.420Z,31.83
2019-03-29T02:13:05.267Z,32.53
2019-03-29T02:13:41.661Z,31.53
2019-03-29T02:14:18.016Z,32.63
2019-03-29T02:14:54.522Z,33.57
2019-03-29T02:15:30.644Z,33.20
2019-03-29T02:16:07.788Z,32.60
2019-03-29T02:16:43.897Z,31.63
2019-03-29T02:17:20.132Z,31.53
2019-03-29T02:17:56.262Z,30.70
2019-03-29T02:18:32.360Z,32.57
2019-03-29T02:19:08.569Z,32.83
2019-03-29T02:19:44.704Z,31.03
2019-03-29T02:20:20.832Z,30.57
2019-03-29T02:20:56.951Z,31.57
2019-03-29T02:21:34.362Z,32.20
2019-03-29T02:22:10.514Z,32.47
2019-03-29T02:22:46.913Z,31.67
2019-03-29T02:23:23.091Z,31.27
2019-03-29T02:24:00.199Z,32.60
2019-03-29T02:24:36.351Z,32.27
2019-03-29T02:25:12.547Z,31.00
2019-03-29T02:25:48.868Z,31.80
2019-03-29T02:26:24.974Z,31.07
2019-03-29T02:27:02.601Z,31.77
2019-03-29T02:27:38.716Z,32.23
2019-03-29T02:28:15.124Z,31.53
2019-03-29T02:28:51.513Z,30.17
2019-03-29T02:29:27.947Z,32.80
2019-03-29T02:30:04.640Z,30.63
2019-03-29T02:30:42.577Z,30.93
2019-03-29T02:31:18.686Z,31.57
2019-03-29T02:31:56.406Z,31.47
2019-03-29T02:32:33.107Z,31.07
2019-03-29T02:33:09.340Z,30.20
2019-03-29T02:33:45.454Z,30.20
2019-03-29T02:34:21.709Z,31.63
2019-03-29T02:34:58.217Z,32.77
2019-03-29T02:35:34.747Z,30.33
2019-03-29T02:36:10.926Z,31.23
2019-03-29T02:36:47.127Z,32.07
2019-03-29T02:37:23.473Z,30.43
2019-03-29T02:38:00.256Z,31.17
2019-03-29T02:38:54.176Z,30.43
2019-03-29T02:39:14.729Z,30.93
2019-03-29T02:39:50.825Z,32.20
2019-03-29T02:40:26.933Z,31.07
2019-03-29T02:41:04.181Z,31.67
2019-03-29T02:41:40.301Z,32.33
2019-03-29T02:42:16.418Z,32.37
2019-03-29T02:42:52.543Z,31.90
2019-03-29T02:43:29.645Z,32.53
2019-03-29T02:44:06.576Z,31.23
2019-03-29T02:44:43.685Z,31.83
2019-03-29T02:45:19.780Z,31.90
2019-03-29T02:45:57.606Z,32.03
2019-03-29T02:46:33.856Z,32.30
2019-03-29T02:47:10.247Z,33.60
2019-03-29T02:47:46.345Z,30.97
2019-03-29T02:48:22.457Z,32.50
2019-03-29T02:48:58.568Z,32.03
2019-03-29T02:49:35.834Z,32.10
2019-03-29T02:50:11.956Z,32.47
2019-03-29T02:50:48.053Z,33.07
2019-03-29T02:51:24.183Z,31.80
2019-03-29T02:52:00.750Z,32.87
2019-03-29T02:52:36.898Z,32.57
2019-03-29T02:53:13.283Z,30.53
2019-03-29T02:53:49.704Z,31.37
2019-03-29T02:54:25.808Z,31.73
2019-03-29T02:55:04.321Z,32.43
2019-03-29T02:55:40.606Z,30.70
2019-03-29T02:56:16.712Z,31.10
2019-03-29T02:56:53.925Z,31.00
2019-03-29T02:57:30.665Z,32.27
2019-03-29T02:58:07.141Z,31.87
2019-03-29T02:58:43.373Z,31.30
2019-03-29T02:59:19.781Z,32.00
2019-03-29T02:59:56.211Z,32.13
2019-03-29T03:00:32.325Z,31.37
2019-03-29T03:01:08.412Z,32.47
2019-03-29T03:01:44.531Z,32.30
2019-03-29T03:02:20.977Z,32.30
2019-03-29T03:02:57.434Z,32.27
2019-03-29T03:03:33.613Z,30.87
2019-03-29T03:04:10.319Z,31.60
2019-03-29T03:04:47.302Z,31.87
2019-03-29T03:05:23.424Z,32.97
2019-03-29T03:06:02.322Z,32.13
2019-03-29T03:06:38.483Z,31.07
2019-03-29T03:07:14.904Z,31.83
2019-03-29T03:07:52.355Z,32.13
2019-03-29T03:08:32.659Z,31.10
2019-03-29T03:09:14.012Z,31.63
2019-03-29T03:09:45.187Z,31.40
2019-03-29T03:10:21.344Z,30.67
2019-03-29T03:10:57.454Z,31.83
2019-03-29T03:11:34.566Z,29.97
2019-03-29T03:12:10.692Z,30.27
2019-03-29T03:12:46.792Z,31.10
2019-03-29T03:13:22.930Z,29.67
2019-03-29T03:14:01.396Z,30.43
2019-03-29T03:14:37.492Z,31.10
2019-03-29T03:15:13.693Z,30.60
2019-03-29T03:15:49.826Z,31.27
2019-03-29T03:16:25.932Z,31.80
2019-03-29T03:17:04.386Z,31.23
2019-03-29T03:17:40.692Z,32.57
2019-03-29T03:18:16.867Z,32.33
2019-03-29T03:18:52.973Z,33.30
2019-03-29T03:19:29.083Z,31.13
2019-03-29T03:20:07.920Z,31.23
2019-03-29T03:20:44.078Z,31.97
2019-03-29T03:21:21.296Z,31.57
2019-03-29T03:21:57.797Z,31.57
2019-03-29T03:22:34.948Z,32.37
2019-03-29T03:23:11.132Z,32.77
2019-03-29T03:23:47.232Z,32.47
2019-03-29T03:24:23.386Z,32.63
2019-03-29T03:25:00.020Z,31.97
2019-03-29T03:25:36.156Z,31.10
2019-03-29T03:26:12.255Z,32.13
2019-03-29T03:26:48.373Z,30.67
2019-03-29T03:27:24.517Z,32.10
2019-03-29T03:28:01.544Z,31.90
2019-03-29T03:28:37.685Z,31.87
2019-03-29T03:29:13.784Z,32.37
2019-03-29T03:29:50.228Z,31.77
2019-03-29T03:30:26.377Z,31.87
2019-03-29T03:31:03.506Z,33.03
2019-03-29T03:31:39.718Z,31.97
2019-03-29T03:32:16.302Z,32.43
2019-03-29T03:32:52.502Z,32.73
2019-03-29T03:33:28.634Z,30.83
2019-03-29T03:34:05.004Z,31.33
2019-03-29T03:34:41.130Z,31.50
2019-03-29T03:35:17.488Z,31.60
2019-03-29T03:35:53.767Z,30.93
2019-03-29T03:36:29.859Z,31.50
2019-03-29T03:37:06.000Z,30.80
2019-03-29T03:37:42.135Z,31.60
2019-03-29T03:38:18.572Z,32.50
2019-03-29T03:38:54.943Z,32.83
2019-03-29T03:39:32.787Z,32.27
2019-03-29T03:40:10.783Z,31.70
2019-03-29T03:40:47.225Z,32.20
2019-03-29T03:41:23.619Z,32.67
2019-03-29T03:42:00.751Z,33.77
2019-03-29T03:42:37.253Z,32.27
2019-03-29T03:43:13.383Z,32.73
2019-03-29T03:43:49.528Z,32.40
2019-03-29T03:44:25.653Z,33.53
2019-03-29T03:45:03.391Z,32.40
2019-03-29T03:45:39.810Z,31.83
2019-03-29T03:46:15.945Z,31.83
2019-03-29T03:46:52.076Z,31.83
2019-03-29T03:47:28.431Z,31.83
2019-03-29T03:48:04.587Z,32.07
2019-03-29T03:48:40.720Z,32.90
2019-03-29T03:49:17.201Z,31.03
2019-03-29T03:49:53.307Z,32.47
2019-03-29T03:50:38.020Z,31.87
2019-03-29T03:51:14.109Z,31.17
2019-03-29T03:51:50.191Z,33.00
2019-03-29T03:52:26.300Z,32.30
2019-03-29T03:53:04.716Z,31.67
2019-03-29T03:53:40.878Z,31.70
2019-03-29T03:54:17.019Z,33.40
2019-03-29T03:54:53.135Z,34.33
2019-03-29T03:55:29.251Z,32.27
2019-03-29T03:56:05.370Z,32.13
2019-03-29T03:56:41.746Z,32.93
2019-03-29T03:57:17.880Z,32.90
2019-03-29T03:57:57.734Z,31.60
2019-03-29T03:58:32.742Z,33.67
2019-03-29T03:59:08.873Z,32.80
2019-03-29T03:59:44.998Z,32.57
2019-03-29T04:00:26.093Z,31.17
2019-03-29T04:01:03.236Z,32.60
2019-03-29T04:01:39.362Z,34.43
2019-03-29T04:02:15.588Z,31.43
2019-03-29T04:02:51.698Z,31.30
2019-03-29T04:03:27.905Z,30.70
2019-03-29T04:04:04.417Z,30.73
2019-03-29T04:04:40.581Z,31.20
2019-03-29T04:05:16.704Z,30.70
2019-03-29T04:05:52.932Z,31.47
2019-03-29T04:06:29.093Z,31.77
2019-03-29T04:07:05.481Z,32.50
2019-03-29T04:07:41.663Z,30.83
2019-03-29T04:08:17.791Z,29.73
2019-03-29T04:08:53.946Z,32.23
2019-03-29T04:09:48.015Z,32.17
2019-03-29T04:10:08.100Z,31.17
2019-03-29T04:10:44.354Z,30.50
2019-03-29T04:11:20.532Z,30.90
2019-03-29T04:11:56.673Z,31.27
2019-03-29T04:12:32.912Z,31.33
2019-03-29T04:13:09.064Z,32.43
2019-03-29T04:13:45.190Z,32.20
2019-03-29T04:14:21.372Z,31.60
2019-03-29T04:14:57.510Z,32.83
2019-03-29T04:15:33.759Z,31.00
2019-03-29T04:16:09.862Z,31.80
2019-03-29T04:16:46.042Z,31.53
2019-03-29T04:17:22.154Z,32.80
2019-03-29T04:17:58.352Z,31.00
2019-03-29T04:18:34.565Z,31.30
2019-03-29T04:19:10.972Z,31.67
2019-03-29T04:19:47.323Z,32.37
2019-03-29T04:20:23.586Z,31.90
2019-03-29T04:21:00.805Z,31.90
2019-03-29T04:21:37.357Z,31.07
2019-03-29T04:22:13.536Z,30.73
2019-03-29T04:22:49.663Z,31.00
2019-03-29T04:23:25.832Z,31.53
2019-03-29T04:24:04.100Z,32.40
2019-03-29T04:24:40.602Z,31.00
2019-03-29T04:25:16.824Z,30.83
2019-03-29T04:25:53.284Z,33.30
2019-03-29T04:26:29.717Z,30.90
2019-03-29T04:27:05.969Z,31.17
2019-03-29T04:27:42.811Z,31.83
2019-03-29T04:28:18.899Z,31.63
2019-03-29T04:29:04.040Z,31.70
2019-03-29T04:29:32.812Z,31.37
2019-03-29T04:30:09.928Z,31.20
2019-03-29T04:30:46.075Z,31.40
2019-03-29T04:31:22.180Z,31.17
2019-03-29T04:31:58.332Z,30.60
2019-03-29T04:32:36.066Z,32.13
2019-03-29T04:33:12.197Z,31.43
2019-03-29T04:33:48.295Z,31.40
2019-03-29T04:34:24.437Z,31.83
2019-03-29T04:35:02.156Z,30.23
2019-03-29T04:35:38.258Z,30.73
2019-03-29T04:36:14.384Z,31.40
2019-03-29T04:36:50.534Z,30.97
2019-03-29T04:37:26.973Z,31.40
2019-03-29T04:38:03.324Z,29.97
2019-03-29T04:38:39.508Z,30.87
2019-03-29T04:39:15.623Z,31.30
2019-03-29T04:40:06.411Z,30.37
2019-03-29T04:40:29.841Z,31.57
2019-03-29T04:41:05.974Z,30.60
2019-03-29T04:41:42.060Z,30.37
2019-03-29T04:42:18.175Z,31.80
2019-03-29T04:42:54.305Z,31.33
2019-03-29T04:43:30.664Z,30.37
2019-03-29T04:44:06.767Z,31.83
2019-03-29T04:44:42.884Z,30.90
2019-03-29T04:45:18.987Z,29.33
2019-03-29T04:45:55.090Z,32.47
2019-03-29T04:46:31.264Z,31.13
2019-03-29T04:47:07.726Z,30.53
2019-03-29T04:47:44.254Z,31.20
2019-03-29T04:48:20.357Z,30.70
2019-03-29T04:48:56.723Z,30.77
2019-03-29T04:49:33.129Z,30.83
2019-03-29T04:50:09.264Z,31.17
2019-03-29T04:50:45.776Z,29.33
2019-03-29T04:51:21.906Z,31.83
2019-03-29T04:51:58.010Z,31.00
2019-03-29T04:52:36.048Z,31.23
2019-03-29T04:53:12.151Z,30.60
2019-03-29T04:53:48.259Z,31.17
2019-03-29T04:54:24.357Z,31.00
2019-03-29T04:55:00.977Z,31.13
2019-03-29T04:55:38.666Z,29.27
2019-03-29T04:56:15.047Z,30.50
2019-03-29T04:56:51.175Z,32.40
2019-03-29T04:57:27.354Z,31.23
2019-03-29T04:58:03.594Z,31.10
2019-03-29T04:58:39.999Z,29.93
2019-03-29T04:59:16.104Z,30.53
2019-03-29T04:59:52.771Z,31.17
2019-03-29T05:00:28.856Z,30.77
2019-03-29T05:01:05.007Z,30.30
2019-03-29T05:01:42.417Z,30.07
2019-03-29T05:02:18.971Z,30.37
2019-03-29T05:02:55.056Z,29.97
2019-03-29T05:03:31.191Z,29.87
2019-03-29T05:04:07.302Z,29.87
2019-03-29T05:04:43.499Z,27.67
2019-03-29T05:05:19.672Z,30.80
2019-03-29T05:05:55.970Z,27.97
2019-03-29T05:06:32.066Z,28.20
2019-03-29T05:07:08.259Z,30.33
2019-03-29T05:07:44.361Z,29.70
2019-03-29T05:08:20.495Z,28.97
2019-03-29T05:08:56.623Z,28.67
2019-03-29T05:09:33.230Z,28.00
2019-03-29T05:10:20.580Z,29.37
2019-03-29T05:10:47.571Z,29.17
2019-03-29T05:11:23.764Z,28.80
2019-03-29T05:12:17.572Z,29.50
2019-03-29T05:12:53.650Z,28.47
2019-03-29T05:13:30.076Z,28.30
2019-03-29T05:14:06.197Z,27.80
2019-03-29T05:14:42.301Z,28.07
2019-03-29T05:15:18.404Z,31.17
2019-03-29T05:15:54.892Z,29.93
2019-03-29T05:16:31.342Z,29.67
2019-03-29T05:17:07.447Z,30.80
2019-03-29T05:17:43.529Z,29.10
2019-03-29T05:18:19.654Z,29.80
2019-03-29T05:18:56.045Z,29.90
2019-03-29T05:19:32.251Z,28.87
2019-03-29T05:20:08.398Z,30.37
2019-03-29T05:20:44.494Z,29.70
2019-03-29T05:21:20.598Z,30.60
2019-03-29T05:21:56.704Z,29.47
2019-03-29T05:22:32.792Z,29.87
2019-03-29T05:23:08.913Z,28.80
2019-03-29T05:23:45.025Z,29.47
2019-03-29T05:24:21.662Z,28.00
2019-03-29T05:24:58.162Z,29.17
2019-03-29T05:25:34.487Z,29.50
2019-03-29T05:26:10.624Z,29.67
2019-03-29T05:26:46.922Z,29.07
2019-03-29T05:27:23.014Z,29.73
2019-03-29T05:27:59.111Z,29.37
2019-03-29T05:28:35.239Z,28.33
2019-03-29T05:29:11.329Z,30.30
2019-03-29T05:29:47.774Z,29.00
2019-03-29T05:30:23.891Z,28.13
2019-03-29T05:31:00.135Z,28.67
2019-03-29T05:31:36.272Z,30.07
2019-03-29T05:32:12.440Z,27.87
2019-03-29T05:32:49.790Z,29.23
2019-03-29T05:33:25.936Z,28.47
2019-03-29T05:34:02.031Z,28.47
2019-03-29T05:34:38.439Z,29.40
2019-03-29T05:35:15.066Z,28.73
2019-03-29T05:35:51.187Z,29.33
2019-03-29T05:36:27.309Z,29.37
2019-03-29T05:37:03.407Z,29.07
2019-03-29T05:37:39.514Z,29.67
2019-03-29T05:38:15.612Z,28.80
2019-03-29T05:38:51.717Z,29.67
2019-03-29T05:39:27.839Z,30.00
2019-03-29T05:40:04.339Z,28.80
2019-03-29T05:40:40.462Z,29.57
2019-03-29T05:41:17.756Z,29.20
2019-03-29T05:41:53.963Z,30.10
2019-03-29T05:42:30.040Z,30.60
2019-03-29T05:43:06.723Z,30.47
2019-03-29T05:43:43.050Z,29.17
2019-03-29T05:44:19.420Z,30.30
2019-03-29T05:44:55.541Z,31.30
2019-03-29T05:45:31.644Z,29.90
2019-03-29T05:46:07.752Z,31.80
2019-03-29T05:46:43.873Z,30.77
2019-03-29T05:47:20.264Z,29.37
2019-03-29T05:47:56.354Z,30.60
2019-03-29T05:48:32.480Z,30.90
2019-03-29T05:49:08.582Z,30.73
2019-03-29T05:49:44.690Z,31.07
2019-03-29T05:50:20.796Z,30.50
2019-03-29T05:50:57.139Z,30.87
2019-03-29T05:51:33.231Z,30.10
2019-03-29T05:52:09.406Z,30.43
2019-03-29T05:52:45.494Z,30.50
2019-03-29T05:53:21.595Z,30.20
2019-03-29T05:53:57.886Z,31.43
2019-03-29T05:54:34.013Z,31.07
2019-03-29T05:55:10.086Z,28.83
2019-03-29T05:55:48.310Z,31.77
2019-03-29T05:56:24.019Z,29.67
2019-03-29T05:57:00.109Z,29.83
2019-03-29T05:57:37.175Z,31.47
2019-03-29T05:58:13.291Z,31.97
2019-03-29T05:58:49.384Z,31.57
2019-03-29T05:59:25.724Z,31.27
2019-03-29T06:00:01.814Z,30.70
2019-03-29T06:00:37.991Z,31.27
2019-03-29T06:01:14.084Z,30.97
2019-03-29T06:01:50.171Z,31.67
2019-03-29T06:02:26.287Z,30.43
2019-03-29T06:03:02.390Z,30.27
2019-03-29T06:03:38.531Z,30.57
2019-03-29T06:04:14.631Z,31.63
2019-03-29T06:04:50.977Z,31.10
2019-03-29T06:05:27.087Z,31.23
2019-03-29T06:06:03.264Z,30.80
2019-03-29T06:06:39.362Z,31.13
2019-03-29T06:07:15.707Z,31.93
2019-03-29T06:07:51.797Z,31.40
2019-03-29T06:08:27.958Z,31.93
2019-03-29T06:09:05.051Z,31.57
2019-03-29T06:09:41.278Z,33.73
2019-03-29T06:10:17.805Z,31.77
2019-03-29T06:10:54.190Z,32.70
2019-03-29T06:11:30.343Z,31.70
2019-03-29T06:12:06.514Z,31.17
2019-03-29T06:12:42.606Z,32.50
2019-03-29T06:13:18.715Z,32.60
2019-03-29T06:13:56.159Z,32.70
2019-03-29T06:14:32.337Z,30.53
2019-03-29T06:15:08.430Z,32.73
2019-03-29T06:15:44.585Z,32.63
2019-03-29T06:16:20.712Z,31.93
2019-03-29T06:16:56.815Z,31.80
2019-03-29T06:17:32.911Z,31.20
2019-03-29T06:18:08.997Z,31.70
2019-03-29T06:18:45.104Z,31.03
2019-03-29T06:19:21.514Z,31.13
2019-03-29T06:19:58.155Z,31.53
2019-03-29T06:20:34.334Z,32.17
2019-03-29T06:21:10.419Z,31.47
2019-03-29T06:21:46.543Z,30.67
2019-03-29T06:22:22.647Z,29.93
2019-03-29T06:22:58.745Z,31.70
2019-03-29T06:23:34.880Z,31.73
2019-03-29T06:24:11.319Z,31.33
2019-03-29T06:24:47.424Z,30.40
2019-03-29T06:25:23.548Z,30.97
2019-03-29T06:25:59.642Z,30.97
2019-03-29T06:26:35.728Z,31.53
2019-03-29T06:27:12.120Z,31.30
2019-03-29T06:27:48.226Z,31.53
2019-03-29T06:28:24.319Z,31.50
2019-03-29T06:29:00.407Z,31.17
2019-03-29T06:29:36.523Z,30.37
2019-03-29T06:30:12.644Z,31.67
2019-03-29T06:30:49.172Z,31.60
2019-03-29T06:31:25.290Z,30.63
2019-03-29T06:32:01.394Z,32.47
2019-03-29T06:32:37.525Z,30.83
2019-03-29T06:33:13.605Z,31.60
2019-03-29T06:33:50.006Z,32.37
2019-03-29T06:34:26.118Z,33.23
2019-03-29T06:35:02.224Z,32.00
2019-03-29T06:35:40.214Z,31.40
2019-03-29T06:36:16.836Z,32.37
2019-03-29T06:36:53.033Z,32.33
2019-03-29T06:37:29.183Z,33.00
2019-03-29T06:38:06.626Z,32.83
2019-03-29T06:38:42.991Z,32.90
2019-03-29T06:39:21.252Z,32.40
2019-03-29T06:39:56.942Z,32.30
2019-03-29T06:40:33.023Z,32.27
2019-03-29T06:41:09.435Z,32.60
2019-03-29T06:41:45.900Z,33.03
2019-03-29T06:42:22.226Z,32.70
2019-03-29T06:42:58.318Z,32.07
2019-03-29T06:43:34.463Z,34.63
2019-03-29T06:44:10.588Z,31.87
2019-03-29T06:44:46.684Z,33.43
2019-03-29T06:45:22.875Z,32.13
2019-03-29T06:45:59.020Z,33.40
2019-03-29T06:46:35.480Z,34.33
2019-03-29T06:47:12.039Z,32.77
2019-03-29T06:47:48.171Z,34.03
2019-03-29T06:48:24.252Z,32.40
2019-03-29T06:49:00.358Z,33.17
2019-03-29T06:49:36.468Z,32.17
2019-03-29T06:50:14.065Z,33.20
2019-03-29T06:50:50.954Z,33.17
2019-03-29T06:51:27.227Z,32.30
2019-03-29T06:52:03.365Z,33.13
2019-03-29T06:52:39.485Z,32.83
2019-03-29T06:53:15.570Z,34.03
2019-03-29T06:53:52.720Z,31.57
2019-03-29T06:54:28.973Z,31.57
2019-03-29T06:55:05.194Z,31.80
2019-03-29T06:55:41.415Z,31.70
2019-03-29T06:56:17.814Z,31.50
2019-03-29T06:56:54.549Z,31.83
2019-03-29T06:57:30.969Z,31.47
2019-03-29T06:58:07.381Z,32.43
2019-03-29T06:58:44.017Z,31.83
2019-03-29T06:59:20.161Z,31.70
2019-03-29T06:59:56.260Z,31.90
2019-03-29T07:00:32.377Z,33.70
2019-03-29T07:01:08.462Z,33.10
2019-03-29T07:01:46.435Z,33.07
2019-03-29T07:02:22.531Z,34.63
2019-03-29T07:02:58.978Z,35.27
2019-03-29T07:03:35.083Z,35.30
2019-03-29T07:04:11.272Z,34.40
2019-03-29T07:04:47.635Z,35.30
2019-03-29T07:05:24.815Z,34.63
2019-03-29T07:06:01.307Z,34.60
2019-03-29T07:06:37.410Z,32.63
2019-03-29T07:07:13.508Z,33.37
2019-03-29T07:07:49.906Z,35.03
2019-03-29T07:08:26.006Z,33.73
2019-03-29T07:09:02.570Z,33.23
2019-03-29T07:09:40.049Z,33.03
2019-03-29T07:10:16.159Z,33.33
2019-03-29T07:10:52.260Z,32.40
2019-03-29T07:11:28.372Z,32.30
2019-03-29T07:12:04.479Z,33.67
2019-03-29T07:12:40.608Z,32.77
2019-03-29T07:13:16.731Z,33.97
2019-03-29T07:13:57.911Z,34.13
2019-03-29T07:14:30.743Z,33.37
2019-03-29T07:15:07.931Z,33.73
2019-03-29T07:15:44.027Z,33.63
2019-03-29T07:16:20.139Z,33.43
2019-03-29T07:16:56.268Z,32.40
2019-03-29T07:17:32.373Z,31.67
2019-03-29T07:18:08.467Z,32.77
2019-03-29T07:18:44.588Z,32.23
2019-03-29T07:19:20.969Z,31.97
2019-03-29T07:19:57.073Z,32.10
2019-03-29T07:20:33.186Z,31.10
2019-03-29T07:21:20.769Z,30.77
2019-03-29T07:21:47.141Z,30.27
2019-03-29T07:22:23.245Z,31.10
2019-03-29T07:22:59.693Z,29.47
2019-03-29T07:23:35.791Z,28.93
2019-03-29T07:24:12.235Z,28.23
2019-03-29T07:24:48.650Z,29.90
2019-03-29T07:25:24.732Z,29.57
2019-03-29T07:26:01.131Z,30.33
2019-03-29T07:26:37.245Z,29.43
2019-03-29T07:27:13.349Z,31.70
2019-03-29T07:27:52.221Z,29.97
2019-03-29T07:28:27.326Z,29.40
2019-03-29T07:29:03.424Z,29.63
2019-03-29T07:29:39.803Z,30.50
2019-03-29T07:30:15.984Z,29.57
2019-03-29T07:30:52.081Z,29.30
2019-03-29T07:31:28.172Z,28.67
2019-03-29T07:32:04.560Z,28.87
2019-03-29T07:32:40.780Z,28.77
2019-03-29T07:33:16.890Z,26.90
2019-03-29T07:33:53.006Z,28.27
2019-03-29T07:34:29.109Z,27.47
2019-03-29T07:35:05.256Z,27.33
2019-03-29T07:35:41.351Z,26.07
2019-03-29T07:36:17.438Z,26.97
2019-03-29T07:36:53.556Z,26.13
2019-03-29T07:37:29.641Z,25.87
2019-03-29T07:38:05.748Z,26.23
2019-03-29T07:38:41.870Z,25.80
2019-03-29T07:39:17.955Z,24.13
2019-03-29T07:39:54.150Z,24.80
2019-03-29T07:40:30.254Z,24.07
2019-03-29T07:41:06.342Z,25.50
2019-03-29T07:41:42.457Z,25.13
2019-03-29T07:42:18.575Z,24.87
2019-03-29T07:42:54.658Z,25.27
2019-03-29T07:43:30.834Z,24.97
2019-03-29T07:44:06.915Z,24.30
2019-03-29T07:44:43.018Z,24.43
2019-03-29T07:45:19.399Z,24.30
2019-03-29T07:45:55.499Z,23.93
2019-03-29T07:46:31.603Z,25.67
2019-03-29T07:47:07.686Z,24.57
2019-03-29T07:47:44.079Z,24.57
2019-03-29T07:48:20.185Z,25.00
2019-03-29T07:48:56.280Z,24.43
2019-03-29T07:49:32.453Z,22.27